Time;durP1;ratioP1;P1;durP2;ratioP2;P2;SDS_P1;SDS_P2;PMS_P1;PMS_P2;Temp;Humidity;BMP_temperature;BMP_pressure;BME280_temperature;BME280_humidity;BME280_pressure;Samples;Min_cycle;Max_cycle;Signal;HPM_P1;HPM_P2
2022/11/04 00:01:05;;;;;;;19.35;10.03;;;;;;;;;;1783804;80;25257;-61
2022/11/04 00:03:32;;;;;;;20.10;9.15;;;;;;;;;;1775541;80;27984;-62
2022/11/04 00:06:00;;;;;;;17.17;9.45;;;;;;;;;;1775468;80;25320;-65
2022/11/04 00:08:29;;;;;;;18.20;10.00;;;;;;;;;;1784139;80;25466;-60
2022/11/04 00:13:44;;;;;;;25.77;10.60;;;;;;;;;;1775667;80;25508;-60
2022/11/04 00:19:00;;;;;;;19.32;9.40;;;;;;;;;;1783708;80;25440;-60
2022/11/04 00:29:45;;;;;;;16.52;8.63;;;;;;;;;;1776751;80;27423;-60
2022/11/04 00:34:57;;;;;;;23.52;10.18;;;;;;;;;;1775391;80;25267;-60
2022/11/04 00:37:24;;;;;;;19.77;9.75;;;;;;;;;;1772958;80;25523;-59
2022/11/04 00:39:51;;;;;;;18.05;8.93;;;;;;;;;;1773032;80;25334;-60
2022/11/04 00:42:18;;;;;;;20.20;10.23;;;;;;;;;;1775797;80;27534;-60
2022/11/04 00:44:45;;;;;;;23.07;10.25;;;;;;;;;;1772903;80;25425;-61
2022/11/04 00:47:12;;;;;;;19.07;10.38;;;;;;;;;;1773015;80;25440;-61
2022/11/04 00:49:39;;;;;;;22.20;9.68;;;;;;;;;;1758223;80;25708;-61
2022/11/04 00:52:06;;;;;;;17.82;9.50;;;;;;;;;;1745784;82;25365;-61
2022/11/04 00:54:33;;;;;;;23.10;9.80;;;;;;;;;;1775360;80;27395;-61
2022/11/04 00:57:00;;;;;;;22.75;10.50;;;;;;;;;;1775394;80;25501;-61
2022/11/04 00:59:27;;;;;;;22.55;10.38;;;;;;;;;;1775546;80;25283;-61
2022/11/04 01:01:55;;;;;;;18.20;10.28;;;;;;;;;;1773085;80;25524;-61
2022/11/04 01:04:22;;;;;;;19.20;9.35;;;;;;;;;;1773059;80;25481;-63
2022/11/04 01:06:48;;;;;;;21.27;10.13;;;;;;;;;;1772936;80;27335;-62
2022/11/04 01:09:15;;;;;;;17.57;8.93;;;;;;;;;;1772322;80;25529;-62
2022/11/04 01:11:42;;;;;;;21.73;9.45;;;;;;;;;;1774289;80;25901;-62
2022/11/04 01:14:10;;;;;;;22.35;9.23;;;;;;;;;;1775422;80;26226;-63
2022/11/04 01:16:38;;;;;;;19.85;9.23;;;;;;;;;;1775831;80;25292;-62
2022/11/04 01:19:05;;;;;;;20.00;9.50;;;;;;;;;;1775761;80;26458;-61
2022/11/04 01:21:33;;;;;;;21.60;11.30;;;;;;;;;;1775674;80;25582;-61
2022/11/04 01:24:00;;;;;;;26.65;9.90;;;;;;;;;;1775737;80;25498;-62
2022/11/04 01:26:29;;;;;;;17.80;8.78;;;;;;;;;;1775673;80;25480;-62
2022/11/04 01:28:57;;;;;;;22.13;8.70;;;;;;;;;;1775748;80;25510;-61
2022/11/04 01:31:30;;;;;;;19.17;9.00;;;;;;;;;;1775802;80;27949;-62
2022/11/04 01:33:58;;;;;;;17.98;9.10;;;;;;;;;;1775591;80;25459;-62
2022/11/04 01:36:27;;;;;;;15.45;8.65;;;;;;;;;;1775683;80;25502;-62
2022/11/04 01:38:56;;;;;;;21.27;9.75;;;;;;;;;;1775801;80;30885;-64
2022/11/04 01:41:30;;;;;;;19.52;8.95;;;;;;;;;;1775921;80;25499;-62
2022/11/04 01:44:00;;;;;;;18.80;9.78;;;;;;;;;;1775719;80;27391;-62
2022/11/04 01:46:41;;;;;;;16.97;8.15;;;;;;;;;;1775476;80;25770;-62
2022/11/04 01:49:36;;;;;;;18.23;8.10;;;;;;;;;;1775781;80;25470;-62
2022/11/04 01:52:09;;;;;;;8.47;8.03;;;;;;;;;;1775746;80;25544;-63
2022/11/04 01:54:38;;;;;;;16.65;7.25;;;;;;;;;;1775743;80;25272;-61
2022/11/04 01:57:07;;;;;;;87.63;81.13;;;;;;;;;;1776016;80;27996;-61
2022/11/04 01:59:36;;;;;;;;;;;;;;;;;;1775499;80;25378;-62
2022/11/04 02:02:04;;;;;;;18.52;11.43;;;;;;;;;;1740762;82;25542;-60
2022/11/04 02:04:31;;;;;;;14.90;9.13;;;;;;;;;;1772957;81;25509;-62
2022/11/04 02:07:00;;;;;;;84.90;78.40;;;;;;;;;;1773025;80;25305;-61
2022/11/04 02:09:28;;;;;;;;;;;;;;;;;;1775544;81;27508;-61
2022/11/04 02:14:44;;;;;;;56.50;52.50;;;;;;;;;;1775746;80;25477;-62
2022/11/04 02:17:20;;;;;;;6.13;5.83;;;;;;;;;;1775831;80;25568;-62
2022/11/04 02:20:00;;;;;;;5.67;5.40;;;;;;;;;;1775834;80;25427;-62
2022/11/04 02:22:36;;;;;;;9.93;9.33;;;;;;;;;;1775900;80;27751;-61
2022/11/04 02:25:16;;;;;;;6.00;5.70;;;;;;;;;;1775833;80;25485;-62
2022/11/04 02:27:50;;;;;;;11.27;10.57;;;;;;;;;;1775342;80;25564;-62
2022/11/04 02:30:19;;;;;;;10.37;9.77;;;;;;;;;;1773171;80;25646;-61
2022/11/04 02:33:01;;;;;;;7.67;7.28;;;;;;;;;;1769776;80;25286;-63
2022/11/04 02:35:41;;;;;;;9.73;9.13;;;;;;;;;;1740330;82;27406;-62
2022/11/04 02:38:33;;;;;;;10.37;9.77;;;;;;;;;;1740519;82;25313;-62
2022/11/04 02:41:06;;;;;;;15.10;14.20;;;;;;;;;;1740558;82;25508;-62
2022/11/04 02:43:40;;;;;;;18.40;17.17;;;;;;;;;;1740568;82;25598;-61
2022/11/04 02:46:27;;;;;;;13.27;12.47;;;;;;;;;;1772813;81;25237;-61
2022/11/04 02:48:58;;;;;;;15.03;14.10;;;;;;;;;;1748435;82;27384;-62
2022/11/04 02:51:31;;;;;;;12.70;11.90;;;;;;;;;;1748816;81;25463;-63
2022/11/04 02:54:20;;;;;;;16.03;15.00;;;;;;;;;;1740577;82;25332;-63
2022/11/04 02:56:50;;;;;;;19.03;17.80;;;;;;;;;;1740314;82;25537;-62
2022/11/04 02:59:24;;;;;;;18.03;16.77;;;;;;;;;;1740611;82;25374;-62
2022/11/04 03:01:52;;;;;;;15.03;14.13;;;;;;;;;;1772623;80;27571;-63
2022/11/04 03:04:27;;;;;;;;;;;;;;;;;;1751583;82;25279;-63
2022/11/04 03:06:55;;;;;;;13.67;12.87;;;;;;;;;;1717644;83;25483;-63
2022/11/04 03:09:22;;;;;;;;;;;;;;;;;;1751560;81;25570;-62
2022/11/04 03:11:53;;;;;;;14.03;13.23;;;;;;;;;;1740560;82;25589;-61
2022/11/04 03:14:23;;;;;;;11.53;10.93;;;;;;;;;;1740563;82;27548;-61
2022/11/04 03:16:59;;;;;;;12.90;12.20;;;;;;;;;;1740456;82;25303;-60
2022/11/04 03:19:42;;;;;;;11.23;10.63;;;;;;;;;;1740504;82;25364;-61
2022/11/04 03:22:14;;;;;;;13.67;12.90;;;;;;;;;;1740556;82;25638;-62
2022/11/04 03:24:44;;;;;;;13.27;12.57;;;;;;;;;;1740607;82;25460;-61
2022/11/04 03:27:31;;;;;;;10.90;10.37;;;;;;;;;;1740597;82;27295;-61
2022/11/04 03:30:05;;;;;;;11.13;10.60;;;;;;;;;;1740393;82;25571;-60
2022/11/04 03:32:49;;;;;;;14.43;13.67;;;;;;;;;;1740651;82;25308;-61
2022/11/04 03:35:17;;;;;;;13.80;13.07;;;;;;;;;;1740534;82;25565;-61
2022/11/04 03:37:44;;;;;;;16.03;15.23;;;;;;;;;;1740791;82;25299;-61
2022/11/04 03:40:12;;;;;;;9.90;9.50;;;;;;;;;;1740783;82;27343;-60
2022/11/04 03:43:10;;;;;;;17.70;16.75;;;;;;;;;;1740567;82;25366;-60
2022/11/04 03:45:38;;;;;;;10.40;9.88;;;;;;;;;;1740793;82;34663;-62
2022/11/04 03:48:05;;;;;;;6.10;5.83;;;;;;;;;;1740581;82;25487;-63
2022/11/04 03:50:46;;;;;;;7.42;7.03;;;;;;;;;;1740511;82;25490;-63
2022/11/04 03:53:16;;;;;;;6.25;5.95;;;;;;;;;;1740557;82;28052;-63
2022/11/04 03:56:09;;;;;;;6.90;6.50;;;;;;;;;;1740501;82;25419;-62
2022/11/04 03:58:54;;;;;;;6.60;6.22;;;;;;;;;;1740589;82;25460;-62
2022/11/04 04:01:39;;;;;;;2.50;2.40;;;;;;;;;;1740686;82;25496;-62
2022/11/04 09:53:48;;;;;;;21.77;10.35;;;;;;;9.79;70.94;99731.71;1887077;76;25467;-68
2022/11/04 09:56:34;;;;;;;15.40;8.98;;;;;;;9.68;71.20;99724.48;1858179;77;25397;-69
2022/11/04 09:59:08;;;;;;;16.42;9.35;;;;;;;9.65;71.81;99716.48;1856727;77;27571;-68
2022/11/04 10:02:01;;;;;;;20.12;9.93;;;;;;;9.62;72.52;99713.59;1858042;77;25442;-67
2022/11/04 10:04:45;;;;;;;20.08;9.55;;;;;;;9.57;72.83;99721.31;1858106;77;25580;-70
2022/11/04 10:07:38;;;;;;;18.55;10.25;;;;;;;9.50;73.19;99716.38;1832777;77;25859;-68
2022/11/04 10:10:16;;;;;;;20.80;9.68;;;;;;;9.44;73.57;99699.29;1858090;77;25555;-64
2022/11/04 10:13:16;;;;;;;15.40;9.33;;;;;;;9.43;74.14;99697.16;1788106;80;27723;-64
2022/11/04 10:16:05;;;;;;;22.48;10.23;;;;;;;9.42;74.17;99700.17;1820345;78;25564;-67
2022/11/04 10:19:18;;;;;;;19.40;9.68;;;;;;;9.42;74.54;99697.47;1787991;80;25387;-66
2022/11/04 10:21:49;;;;;;;21.25;10.45;;;;;;;9.46;74.35;99693.02;1819808;78;25553;-68
2022/11/04 10:24:24;;;;;;;19.95;9.35;;;;;;;9.49;74.50;99686.98;1787377;80;25707;-65
2022/11/04 10:27:04;;;;;;;21.93;10.48;;;;;;;9.52;74.17;99679.61;1818544;78;27561;-64
2022/11/04 10:29:44;;;;;;;17.17;10.23;;;;;;;9.55;73.94;99680.31;1788000;80;25412;-67
2022/11/04 10:32:19;;;;;;;17.85;9.75;;;;;;;9.64;74.59;99681.13;1820357;78;25521;-69
2022/11/04 10:34:58;;;;;;;16.42;8.65;;;;;;;9.72;74.00;99672.77;1788107;80;25371;-66
2022/11/04 10:37:26;;;;;;;23.47;10.50;;;;;;;9.88;73.77;99670.40;1820434;78;25459;-64
2022/11/04 10:40:06;;;;;;;16.60;9.75;;;;;;;10.03;74.01;99676.66;1788035;80;27572;-66
2022/11/04 10:42:33;;;;;;;18.37;9.78;;;;;;;10.26;74.64;99677.23;1820306;78;25376;-70
2022/11/04 10:44:59;;;;;;;17.90;8.85;;;;;;;10.54;74.39;99665.26;1788167;80;25384;-69
2022/11/04 10:47:31;;;;;;;86.25;79.80;;;;;;;10.89;73.99;99659.72;1820328;78;25379;-67
2022/11/04 10:50:06;;;;;;;85.85;79.55;;;;;;;11.23;72.60;99658.72;1787688;80;25522;-69
2022/11/04 10:52:35;;;;;;;69.33;63.80;;;;;;;11.58;71.41;99655.20;1822565;78;27467;-70
2022/11/04 10:55:05;;;;;;;14.47;13.67;;;;;;;;;;1793822;80;25302;-68
2022/11/04 10:57:31;;;;;;;4.83;4.62;;;;;;;;;;1806723;79;25455;-73
2022/11/04 11:08:36;;;;;;;17.05;8.05;;;;;;;14.08;63.17;99643.72;1905352;74;25573;-74
2022/11/04 11:11:03;;;;;;;18.95;8.48;;;;;;;14.27;65.19;99633.52;1859837;76;25363;-65
2022/11/04 11:13:36;;;;;;;17.82;9.13;;;;;;;14.44;63.23;99629.66;1859932;77;27542;-64
2022/11/04 11:16:10;;;;;;;11.28;7.55;;;;;;;14.44;61.58;99630.21;1859817;76;25524;-60
2022/11/04 11:18:39;;;;;;;15.78;9.35;;;;;;;14.16;61.39;99633.22;1860030;77;25398;-65
2022/11/04 11:21:14;;;;;;;15.98;7.20;;;;;;;13.85;60.52;99629.88;1859860;76;25534;-66
2022/11/04 11:23:50;;;;;;;14.65;8.05;;;;;;;13.58;60.90;99624.66;1859983;77;25592;-65
2022/11/04 11:26:20;;;;;;;13.32;7.97;;;;;;;13.37;60.81;99625.64;1859126;76;28369;-66
2022/11/04 11:29:00;;;;;;;12.47;7.60;;;;;;;13.14;61.40;99623.16;1859836;76;25519;-66
2022/11/04 13:00:07;;;;;;;15.48;7.47;;;;;;;13.62;60.90;99563.05;1868285;76;25333;-62
2022/11/04 13:02:41;;;;;;;13.78;6.50;;;;;;;13.78;60.53;99561.16;1737444;82;25501;-59
2022/11/04 13:05:46;;;;;;;20.10;6.75;;;;;;;14.04;60.00;99550.94;1737301;82;27514;-59
2022/11/04 13:08:18;;;;;;;11.10;6.58;;;;;;;14.16;59.40;99554.93;1737472;82;25629;-61
2022/11/04 13:10:51;;;;;;;12.60;6.65;;;;;;;14.14;58.07;99553.92;1736841;82;25607;-60
2022/11/04 13:13:23;;;;;;;14.95;6.78;;;;;;;14.07;57.84;99555.69;1737522;82;25647;-60
2022/11/04 13:15:55;;;;;;;12.03;7.10;;;;;;;13.87;57.81;99559.64;1737508;82;25631;-61
2022/11/04 13:18:25;;;;;;;13.72;6.12;;;;;;;13.79;57.61;99564.66;1736472;82;27445;-59
2022/11/04 13:21:00;;;;;;;15.43;7.33;;;;;;;13.69;57.50;99556.47;1736130;82;26076;-58
2022/11/04 13:24:08;;;;;;;11.00;7.45;;;;;;;13.56;57.45;99553.59;1736038;82;25862;-58
2022/11/04 13:26:34;;;;;;;17.07;8.00;;;;;;;13.50;58.01;99557.67;1713854;83;25940;-58
2022/11/04 13:29:20;;;;;;;12.25;7.08;;;;;;;13.37;58.27;99560.45;1715366;83;25914;-60
2022/11/04 13:32:13;;;;;;;15.18;7.75;;;;;;;13.26;58.12;99552.53;1715194;83;27574;-58
2022/11/04 13:35:02;;;;;;;13.03;8.60;;;;;;;13.10;57.97;99557.13;1804671;79;27314;-56
2022/11/04 13:37:52;;;;;;;14.30;7.90;;;;;;;12.96;58.49;99565.06;1736205;82;25594;-59
2022/11/04 13:40:24;;;;;;;17.75;7.75;;;;;;;12.86;58.79;99559.53;1807483;79;27385;-55
2022/11/04 13:46:11;;;;;;;15.90;7.37;;;;;;;12.69;59.05;99566.58;1807815;79;27494;-57
2022/11/04 13:48:59;;;;;;;12.90;7.78;;;;;;;12.58;59.16;99561.38;1736387;82;25691;-57
2022/11/04 13:51:45;;;;;;;16.70;8.00;;;;;;;12.47;59.22;99568.61;1807789;79;25601;-60
2022/11/04 13:54:36;;;;;;;15.30;7.08;;;;;;;12.40;59.40;99574.38;1736501;82;25507;-57
2022/11/04 13:57:13;;;;;;;24.57;7.90;;;;;;;12.32;59.65;99574.13;1807735;79;25466;-56
2022/11/04 13:59:43;;;;;;;14.15;7.12;;;;;;;12.23;59.87;99572.10;1736497;82;27461;-58
2022/11/04 14:04:46;;;;;;;12.88;7.58;;;;;;;12.05;60.08;99569.36;1818546;75;27089;-57
2022/11/04 14:07:16;;;;;;;18.73;9.58;;;;;;;11.93;60.31;99566.84;1839139;78;25391;-58
2022/11/04 14:09:51;;;;;;;19.70;9.60;;;;;;;11.85;60.09;99571.78;1839048;78;25421;-58
2022/11/04 14:12:28;;;;;;;13.15;7.28;;;;;;;11.76;60.19;99574.59;1838656;78;29690;-57
2022/11/04 14:15:12;;;;;;;15.03;8.50;;;;;;;11.70;60.46;99575.13;1838627;78;25417;-58
2022/11/04 14:44:34;;;;;;;85.37;78.97;;;;;;;11.04;61.82;99591.50;1905507;74;25319;-57
2022/11/04 14:47:29;;;;;;;86.63;79.82;;;;;;;10.89;61.94;99582.04;1859960;77;25559;-57
2022/11/04 14:50:04;;;;;;;93.15;85.05;;;;;;;10.84;62.25;99570.05;1859963;76;28084;-56
2022/11/04 14:52:48;;;;;;;83.92;77.72;;;;;;;10.78;62.61;99570.81;1859973;76;25538;-61
2022/11/04 14:55:19;;;;;;;83.35;76.92;;;;;;;10.73;62.83;99567.52;1859940;77;25478;-59
2022/11/04 14:57:55;;;;;;;80.67;75.08;;;;;;;10.68;63.06;99564.44;1859872;77;27079;-58
2022/11/04 15:00:36;;;;;;;82.12;75.85;;;;;;;10.61;63.41;99559.53;1860049;76;25453;-59
2022/11/04 15:03:23;;;;;;;33.33;30.27;;;;;;;10.58;63.45;99561.53;1859931;76;27475;-55
2022/11/04 15:05:54;;;;;;;14.45;8.30;;;;;;;10.56;63.74;99572.46;1859711;77;25532;-57
2022/11/04 15:08:34;;;;;;;16.75;8.30;;;;;;;10.51;64.01;99578.84;1860046;76;25370;-59
2022/11/04 15:12:49;;;;;;;17.45;8.55;;;;;;;10.45;64.20;99578.23;1859994;76;25374;-57
2022/11/04 15:13:56;;;;;;;14.68;8.38;;;;;;;10.44;64.35;99579.34;1856902;77;25427;-59
2022/11/04 15:16:28;;;;;;;15.83;7.97;;;;;;;10.44;64.51;99579.91;1859928;76;27303;-58
2022/11/04 15:18:57;;;;;;;18.70;10.80;;;;;;;10.41;64.84;99577.28;1859958;76;25583;-60
2022/11/04 15:21:24;;;;;;;15.83;9.35;;;;;;;10.38;64.90;99572.52;1860197;76;25402;-60
2022/11/04 15:23:53;;;;;;;15.58;8.65;;;;;;;10.39;64.97;99570.62;1859976;76;25454;-57
2022/11/04 15:26:24;;;;;;;25.02;9.65;;;;;;;10.37;65.21;99565.55;1860198;77;25433;-59
2022/11/04 15:28:51;;;;;;;14.98;8.45;;;;;;;10.36;65.28;99565.87;1860075;76;28180;-58
2022/11/04 15:31:24;;;;;;;21.87;9.70;;;;;;;10.34;65.47;99562.70;1859924;77;25448;-57
2022/11/04 15:33:58;;;;;;;18.07;9.90;;;;;;;10.33;65.52;99570.00;1859365;76;25364;-58
2022/11/04 15:36:29;;;;;;;15.58;9.73;;;;;;;10.33;65.60;99575.97;1860038;76;25352;-57
2022/11/04 15:39:25;;;;;;;19.75;9.63;;;;;;;10.34;65.72;99569.46;1859907;76;25386;-59
2022/11/04 15:44:51;;;;;;;16.73;9.43;;;;;;;10.31;66.02;99572.21;1859907;77;25368;-60
2022/11/04 15:47:29;;;;;;;18.10;9.13;;;;;;;10.32;66.27;99573.02;1860039;76;25504;-57
2022/11/04 15:50:07;;;;;;;19.05;10.75;;;;;;;10.34;66.43;99580.27;1860149;77;25471;-58
2022/11/04 15:52:34;;;;;;;18.55;10.50;;;;;;;10.36;66.31;99580.17;1855486;76;25464;-57
2022/11/04 15:55:00;;;;;;;22.35;10.68;;;;;;;10.39;66.25;99584.15;1859616;77;27408;-55
2022/11/04 15:57:38;;;;;;;16.82;9.65;;;;;;;10.37;66.32;99581.77;1859303;76;25712;-59
2022/11/04 16:00:20;;;;;;;16.12;10.45;;;;;;;10.36;66.37;99585.58;1838161;77;25375;-58
2022/11/04 16:02:56;;;;;;;17.50;9.78;;;;;;;10.36;66.43;99592.33;1859370;77;25426;-60
2022/11/04 16:05:34;;;;;;;22.48;10.45;;;;;;;10.37;66.79;99605.28;1859470;77;25355;-61
2022/11/04 16:08:22;;;;;;;20.60;10.53;;;;;;;10.39;66.63;99613.88;1859448;76;27638;-63
2022/11/04 16:10:49;;;;;;;24.85;12.40;;;;;;;10.43;66.80;99606.13;1859329;77;25417;-60
2022/11/04 16:13:22;;;;;;;20.25;11.57;;;;;;;10.44;66.96;99598.27;1859410;76;25401;-59
2022/11/04 16:15:54;;;;;;;16.48;11.22;;;;;;;10.48;66.95;99604.38;1859396;76;25353;-60
2022/11/04 16:18:42;;;;;;;21.62;12.43;;;;;;;10.49;66.85;99597.84;1857927;76;25037;-60
2022/11/04 16:21:13;;;;;;;29.10;15.43;;;;;;;10.50;66.90;99602.14;1859441;76;26965;-59
2022/11/04 16:23:46;;;;;;;20.77;11.85;;;;;;;10.49;66.93;99601.89;1838063;77;25395;-59
2022/11/04 16:26:13;;;;;;;23.25;12.18;;;;;;;10.48;66.95;99601.68;1859466;76;25420;-59
2022/11/04 16:28:41;;;;;;;24.00;12.15;;;;;;;10.46;67.02;99598.73;1859422;76;25413;-60
2022/11/04 16:31:24;;;;;;;20.85;12.55;;;;;;;10.43;67.07;99600.73;1859467;76;25361;-59
2022/11/04 16:33:51;;;;;;;20.88;11.57;;;;;;;10.40;67.20;99593.83;1840875;77;27458;-58
2022/11/04 16:36:23;;;;;;;24.82;12.75;;;;;;;10.39;67.38;99593.61;1859111;76;25373;-60
2022/11/04 16:39:06;;;;;;;25.55;12.18;;;;;;;10.37;67.39;99593.12;1859316;77;25425;-57
2022/11/04 16:41:35;;;;;;;19.92;11.22;;;;;;;10.35;67.47;99594.82;1859073;76;25362;-58
2022/11/04 16:44:04;;;;;;;23.47;13.38;;;;;;;10.34;67.57;99591.09;1862683;76;25417;-56
2022/11/04 16:46:33;;;;;;;21.65;12.35;;;;;;;10.32;67.63;99591.95;1865660;76;27498;-60
2022/11/04 16:48:59;;;;;;;19.92;12.07;;;;;;;10.31;67.86;99600.59;1865784;76;25377;-57
2022/11/04 16:51:25;;;;;;;22.13;11.68;;;;;;;10.31;67.91;99599.24;1865717;76;25401;-59
2022/11/04 16:53:53;;;;;;;24.18;12.70;;;;;;;10.31;68.07;99605.21;1865635;76;25366;-62
2022/11/04 16:56:24;;;;;;;19.05;11.53;;;;;;;10.28;68.34;99603.94;1865737;76;25438;-63
2022/11/04 16:58:51;;;;;;;88.20;81.28;;;;;;;10.27;68.28;99603.16;1865702;76;28100;-62
2022/11/04 17:01:18;;;;;;;87.82;80.77;;;;;;;10.25;68.39;99597.85;1865619;76;25875;-62
2022/11/04 17:03:44;;;;;;;89.47;82.20;;;;;;;10.25;68.64;99601.34;1865671;76;25399;-62
2022/11/04 17:06:14;;;;;;;84.07;77.55;;;;;;;10.26;68.53;99598.85;1865584;76;25453;-58
2022/11/04 17:08:40;;;;;;;81.67;75.20;;;;;;;10.24;68.48;99595.69;1865851;76;25417;-58
2022/11/04 17:11:08;;;;;;;84.40;77.80;;;;;;;10.22;68.45;99597.14;1865676;76;27483;-58
2022/11/04 17:13:34;;;;;;;85.77;79.03;;;;;;;10.19;68.49;99588.32;1865590;76;25441;-57
2022/11/04 17:16:01;;;;;;;85.25;78.57;;;;;;;10.18;68.58;99592.94;1865658;76;25381;-59
2022/11/04 17:18:30;;;;;;;90.42;83.40;;;;;;;10.14;68.57;99584.44;1865587;76;25725;-58
2022/11/04 17:20:58;;;;;;;86.47;79.55;;;;;;;10.10;68.68;99575.63;1865837;76;25433;-60
2022/11/04 17:23:25;;;;;;;84.50;77.80;;;;;;;10.08;68.70;99568.41;1865624;76;27507;-58
2022/11/04 17:25:51;;;;;;;85.03;78.12;;;;;;;10.05;68.81;99565.56;1865570;76;25414;-57
2022/11/04 17:28:17;;;;;;;86.57;79.55;;;;;;;10.02;68.96;99574.30;1865654;76;25375;-60
2022/11/04 17:30:44;;;;;;;89.67;82.65;;;;;;;9.99;69.03;99574.95;1865639;76;25460;-59
2022/11/04 17:33:17;;;;;;;12.03;7.40;;;;;;;9.98;69.12;99568.75;1865634;76;25357;-58
2022/11/04 17:35:48;;;;;;;20.43;11.43;;;;;;;9.99;69.26;99559.52;1865678;76;27386;-61
2022/11/04 17:38:17;;;;;;;20.75;10.53;;;;;;;9.97;69.17;99563.11;1865572;76;25346;-56
2022/11/04 17:48:48;;;;;;;21.97;10.48;;;;;;;9.85;69.49;99550.83;1842090;77;28228;-57
2022/11/04 17:51:15;;;;;;;20.60;11.55;;;;;;;9.84;69.56;99549.23;1842047;77;25370;-56
2022/11/04 17:53:42;;;;;;;25.85;12.78;;;;;;;9.80;69.71;99549.66;1842129;77;25520;-57
2022/11/04 17:56:14;;;;;;;21.93;10.95;;;;;;;9.76;69.72;99546.80;1842110;77;25365;-56
2022/11/04 17:58:41;;;;;;;19.15;11.38;;;;;;;9.75;69.78;99545.77;1842167;77;25400;-57
2022/11/04 18:01:13;;;;;;;22.37;13.35;;;;;;;9.70;69.96;99539.44;1842161;77;27368;-57
2022/11/04 18:03:41;;;;;;;19.07;12.00;;;;;;;9.68;70.08;99536.81;1842019;77;25411;-54
2022/11/04 18:06:09;;;;;;;23.77;14.47;;;;;;;9.66;70.19;99539.05;1842091;77;25409;-56
2022/11/04 18:08:37;;;;;;;30.55;22.73;;;;;;;9.64;70.23;99542.63;1842115;77;25386;-55
2022/11/04 18:11:08;;;;;;;25.10;13.72;;;;;;;9.62;70.37;99535.38;1842184;77;25067;-55
2022/11/04 18:13:36;;;;;;;21.42;11.83;;;;;;;9.61;70.42;99537.86;1768105;81;27412;-57
2022/11/04 18:16:12;;;;;;;21.25;13.25;;;;;;;9.59;70.55;99531.43;1768037;81;25462;-58
2022/11/04 18:18:40;;;;;;;22.37;14.43;;;;;;;9.58;70.64;99531.18;1768012;81;25880;-60
2022/11/04 18:21:09;;;;;;;25.17;12.30;;;;;;;9.58;70.63;99530.40;1768069;81;25495;-57
2022/11/04 18:23:37;;;;;;;24.05;10.95;;;;;;;9.55;70.67;99529.12;1768247;81;25435;-56
2022/11/04 18:26:09;;;;;;;20.92;9.85;;;;;;;9.55;70.77;99515.63;1777556;80;27429;-56
2022/11/04 18:28:38;;;;;;;19.98;10.65;;;;;;;9.55;70.80;99512.92;1803787;79;25304;-55
2022/11/04 18:31:10;;;;;;;19.77;11.00;;;;;;;9.54;70.79;99518.88;1789212;80;25337;-57
2022/11/04 18:33:41;;;;;;;19.65;10.00;;;;;;;9.53;70.86;99520.02;1803793;79;25292;-56
2022/11/04 18:36:08;;;;;;;16.27;9.58;;;;;;;9.55;70.97;99525.06;1789099;80;25334;-57
2022/11/04 18:38:35;;;;;;;22.90;8.73;;;;;;;9.53;71.08;99533.52;1789497;80;27332;-58
2022/11/04 18:41:03;;;;;;;20.05;9.88;;;;;;;9.53;71.08;99535.40;1789122;80;25308;-57
2022/11/04 18:43:30;;;;;;;22.75;10.13;;;;;;;9.56;71.09;99530.72;1789097;80;25070;-57
2022/11/04 18:45:57;;;;;;;23.45;10.63;;;;;;;9.56;71.12;99532.06;1810034;79;25357;-58
2022/11/04 18:48:25;;;;;;;18.00;9.68;;;;;;;9.55;71.12;99527.77;1789251;80;25379;-55
2022/11/04 18:50:52;;;;;;;19.15;9.70;;;;;;;9.57;71.17;99522.86;1789279;80;27983;-59
2022/11/04 18:53:19;;;;;;;89.10;81.92;;;;;;;9.57;71.17;99520.70;1789107;80;25928;-59
2022/11/04 18:55:46;;;;;;;89.28;81.97;;;;;;;9.56;71.13;99526.66;1787574;80;25373;-59
2022/11/04 18:58:13;;;;;;;86.97;80.22;;;;;;;9.57;71.15;99522.05;1803809;79;25481;-58
2022/11/04 19:00:40;;;;;;;87.53;80.62;;;;;;;9.57;71.22;99520.70;1789192;80;25324;-57
2022/11/04 19:03:09;;;;;;;86.02;79.35;;;;;;;9.58;71.22;99519.59;1803770;79;27916;-56
2022/11/04 19:05:41;;;;;;;85.80;78.90;;;;;;;9.58;71.27;99535.23;1789110;80;25307;-55
2022/11/04 19:08:08;;;;;;;87.65;81.10;;;;;;;9.60;71.42;99528.95;1803817;79;25337;-54
2022/11/04 19:10:37;;;;;;;88.80;81.90;;;;;;;9.62;71.35;99530.80;1789155;79;25477;-57
2022/11/04 19:13:17;;;;;;;87.92;81.08;;;;;;;9.62;71.36;99533.50;1809903;78;25319;-54
2022/11/04 19:15:44;;;;;;;88.87;81.90;;;;;;;9.62;71.34;99534.84;1810169;78;27341;-55
2022/11/04 19:18:11;;;;;;;88.33;81.32;;;;;;;9.65;71.40;99534.20;1809926;79;25289;-58
2022/11/04 19:20:38;;;;;;;86.28;79.03;;;;;;;9.65;71.35;99536.09;1809990;78;25319;-56
2022/11/04 19:23:06;;;;;;;84.17;77.85;;;;;;;9.65;71.45;99536.91;1809973;78;25472;-55
2022/11/04 19:25:33;;;;;;;85.00;77.92;;;;;;;9.70;71.35;99548.89;1810059;78;25330;-57
2022/11/04 19:28:00;;;;;;;84.30;77.03;;;;;;;9.63;71.54;99529.66;1810017;78;28044;-54
2022/11/04 19:30:28;;;;;;;89.87;83.12;;;;;;;9.65;71.44;99528.00;1810038;78;25312;-55
2022/11/04 19:32:57;;;;;;;89.92;83.05;;;;;;;9.64;71.42;99527.78;1789301;80;25313;-56
2022/11/04 19:35:24;;;;;;;88.07;81.40;;;;;;;9.62;71.47;99524.05;1810414;79;25518;-56
2022/11/04 19:37:51;;;;;;;91.17;83.85;;;;;;;9.61;71.48;99535.95;1810189;78;25313;-54
2022/11/04 19:40:19;;;;;;;88.03;81.07;;;;;;;9.60;71.53;99531.65;1810430;78;27499;-55
2022/11/04 19:45:31;;;;;;;87.35;80.62;;;;;;;9.61;71.50;99541.91;1803840;79;25320;-54
2022/11/04 19:47:59;;;;;;;87.85;80.92;;;;;;;9.62;71.56;99535.38;1789252;80;26008;-54
2022/11/04 19:50:26;;;;;;;83.80;76.82;;;;;;;9.60;71.59;99537.05;1810185;79;25302;-57
2022/11/04 19:55:25;;;;;;;88.27;81.17;;;;;;;9.68;71.57;99546.26;1909997;74;27699;-54
2022/11/04 19:57:52;;;;;;;27.67;14.93;;;;;;;9.58;71.55;99533.09;1873724;75;25414;-53
2022/11/04 20:00:19;;;;;;;23.50;11.78;;;;;;;9.62;71.61;99547.53;1873174;75;27226;-53
2022/11/04 20:02:46;;;;;;;33.78;18.02;;;;;;;9.63;71.55;99539.11;1862761;75;25471;-52
2022/11/04 20:05:14;;;;;;;38.42;23.02;;;;;;;9.62;71.62;99533.50;1876049;75;25582;-52
2022/11/04 20:07:41;;;;;;;21.60;12.43;;;;;;;9.61;71.53;99528.41;1862553;75;25433;-55
2022/11/04 20:10:09;;;;;;;42.55;25.55;;;;;;;9.62;71.60;99532.14;1881453;75;26002;-52
2022/11/04 20:15:25;;;;;;;30.40;19.73;;;;;;;9.59;71.64;99524.68;1867640;75;25678;-56
2022/11/04 20:17:52;;;;;;;20.88;12.25;;;;;;;9.60;71.71;99528.95;1876416;75;25439;-56
2022/11/04 20:20:19;;;;;;;23.87;13.13;;;;;;;9.60;71.62;99533.56;1876253;75;25718;-56
2022/11/04 20:22:47;;;;;;;22.87;13.98;;;;;;;9.59;71.68;99538.18;1864803;75;25879;-57
2022/11/04 20:25:14;;;;;;;21.37;11.15;;;;;;;9.58;71.54;99540.63;1815026;78;27963;-56
2022/11/04 20:27:41;;;;;;;20.23;11.45;;;;;;;9.58;71.70;99543.90;1858013;77;25287;-58
2022/11/04 20:30:09;;;;;;;26.33;11.33;;;;;;;9.54;71.62;99539.13;1809833;78;25388;-58
2022/11/04 20:32:37;;;;;;;19.95;11.65;;;;;;;9.53;71.83;99540.80;1801292;78;25322;-58
2022/11/04 20:35:07;;;;;;;18.67;11.12;;;;;;;9.53;71.64;99542.15;1815387;78;25481;-57
2022/11/04 20:37:35;;;;;;;25.52;12.47;;;;;;;9.50;71.77;99546.83;1814842;78;27372;-50
2022/11/04 20:40:02;;;;;;;20.88;11.38;;;;;;;9.48;71.80;99539.08;1811838;78;25768;-50
2022/11/04 20:42:30;;;;;;;35.73;18.80;;;;;;;9.45;71.85;99532.97;1833259;77;25347;-48
2022/11/04 20:44:57;;;;;;;20.97;11.93;;;;;;;9.44;71.80;99534.06;1800681;78;25688;-49
2022/11/04 20:47:24;;;;;;;23.25;12.73;;;;;;;9.43;71.90;99534.38;1811067;78;25481;-49
2022/11/04 20:49:51;;;;;;;20.52;11.00;;;;;;;9.39;71.98;99528.83;1825563;78;28054;-49
2022/11/04 20:52:19;;;;;;;24.63;14.55;;;;;;;9.37;72.05;99535.67;1849285;77;25647;-49
2022/11/04 20:54:46;;;;;;;23.95;13.68;;;;;;;9.34;72.14;99533.05;1851558;77;25562;-50
2022/11/04 20:57:13;;;;;;;21.20;12.63;;;;;;;9.31;72.17;99537.72;1808065;78;25456;-48
2022/11/04 20:59:41;;;;;;;24.10;13.08;;;;;;;9.27;72.67;99534.09;1828223;77;25630;-49
2022/11/04 21:02:10;;;;;;;17.12;11.63;;;;;;;9.25;72.43;99534.97;1825475;77;27373;-48
2022/11/04 21:04:38;;;;;;;24.82;12.78;;;;;;;9.23;72.32;99535.28;1814853;78;25444;-49
2022/11/04 21:07:06;;;;;;;22.65;12.35;;;;;;;9.22;72.50;99532.90;1818790;78;25602;-50
2022/11/04 21:09:33;;;;;;;24.92;11.43;;;;;;;9.22;72.44;99535.59;1853068;77;25589;-51
2022/11/04 21:12:00;;;;;;;21.82;13.00;;;;;;;9.21;72.70;99542.91;1796781;78;25270;-50
2022/11/04 21:14:30;;;;;;;23.18;11.22;;;;;;;9.19;72.54;99547.81;1830330;77;27525;-48